Time;durP1;ratioP1;P1;durP2;ratioP2;P2;SDS_P1;SDS_P2;PMS_P1;PMS_P2;Temp;Humidity;BMP_temperature;BMP_pressure;BME280_temperature;BME280_humidity;BME280_pressure;Samples;Min_cycle;Max_cycle;Signal;HPM_P1;HPM_P2
2022/12/26 00:00:10;;;;;;;41.35;7.88;;;;;;;7.75;100.00;97864.69;5029047;28;20033;-55
2022/12/26 00:02:36;;;;;;;36.63;7.32;;;;;;;7.78;100.00;97869.91;5029122;28;20025;-53
2022/12/26 00:05:01;;;;;;;35.50;6.85;;;;;;;7.89;100.00;97876.84;5029615;28;20080;-54
2022/12/26 00:07:27;;;;;;;30.67;6.65;;;;;;;7.97;100.00;97871.72;5028956;28;20054;-55
2022/12/26 00:09:52;;;;;;;52.22;8.50;;;;;;;7.93;100.00;97871.72;5029028;28;20040;-54
2022/12/26 00:12:17;;;;;;;31.45;6.72;;;;;;;7.91;100.00;97873.41;5029043;28;20091;-53
2022/12/26 00:14:43;;;;;;;35.35;6.97;;;;;;;7.98;100.00;97865.69;5030905;28;20104;-54
2022/12/26 00:17:08;;;;;;;39.00;6.95;;;;;;;7.97;100.00;97884.69;5028227;28;20375;-53
2022/12/26 00:19:34;;;;;;;36.33;6.78;;;;;;;8.02;100.00;97882.97;5031293;28;20024;-56
2022/12/26 00:21:59;;;;;;;37.85;6.82;;;;;;;7.94;100.00;97893.28;5028640;28;20043;-55
2022/12/26 00:24:24;;;;;;;33.63;6.35;;;;;;;7.84;100.00;97888.91;5030091;28;20056;-53
2022/12/26 00:26:50;;;;;;;37.60;6.72;;;;;;;7.98;100.00;97883.81;5029109;28;20103;-57
2022/12/26 00:29:15;;;;;;;34.72;6.53;;;;;;;8.04;100.00;97884.72;5030972;28;20042;-55
2022/12/26 00:31:40;;;;;;;33.80;6.68;;;;;;;8.10;100.00;97890.78;5028365;28;20045;-56
2022/12/26 00:34:06;;;;;;;38.35;6.97;;;;;;;8.14;100.00;97885.63;5030534;28;20121;-56
2022/12/26 00:36:32;;;;;;;32.38;6.30;;;;;;;8.12;100.00;97883.91;5027920;28;20925;-55
2022/12/26 00:39:00;;;;;;;30.98;6.05;;;;;;;8.03;100.00;97885.59;5028473;28;20398;-53
2022/12/26 00:41:26;;;;;;;36.17;6.65;;;;;;;8.01;100.00;97882.09;5027376;28;20100;-54
2022/12/26 00:43:51;;;;;;;32.88;6.05;;;;;;;8.03;100.00;97880.41;5030251;28;20100;-55
2022/12/26 00:46:17;;;;;;;36.90;6.63;;;;;;;8.21;100.00;97889.13;5028312;28;20095;-57
2022/12/26 00:48:42;;;;;;;32.35;6.07;;;;;;;8.19;100.00;97891.69;5029956;28;20268;-56
2022/12/26 00:51:08;;;;;;;28.90;5.57;;;;;;;8.17;100.00;97888.22;5028249;28;20088;-54
2022/12/26 00:53:34;;;;;;;31.05;5.90;;;;;;;8.12;100.00;97887.34;5028097;28;20056;-54
2022/12/26 00:56:00;;;;;;;30.10;5.95;;;;;;;8.14;100.00;97884.75;5030032;28;20495;-55
2022/12/26 00:58:26;;;;;;;35.00;6.20;;;;;;;8.11;100.00;97879.56;5027500;28;20048;-55
2022/12/26 01:00:51;;;;;;;32.85;6.13;;;;;;;8.29;100.00;97886.53;5028427;28;20048;-54
2022/12/26 01:03:17;;;;;;;36.30;6.28;;;;;;;8.35;100.00;97881.38;5028798;28;20031;-55
2022/12/26 01:05:45;;;;;;;35.45;6.20;;;;;;;8.46;100.00;97871.94;5027944;28;20103;-54
2022/12/26 01:08:11;;;;;;;35.58;6.63;;;;;;;8.54;100.00;97877.16;5028458;28;20025;-57
2022/12/26 01:10:40;;;;;;;38.05;6.22;;;;;;;8.59;100.00;97887.56;5025590;28;20055;-54
2022/12/26 01:13:05;;;;;;;37.28;6.88;;;;;;;8.58;100.00;97889.25;5028685;28;20025;-54
2022/12/26 01:15:31;;;;;;;40.08;6.50;;;;;;;8.42;100.00;97890.91;5026384;28;20037;-53
2022/12/26 01:17:57;;;;;;;35.10;5.93;;;;;;;8.38;100.00;97894.34;5028729;28;20053;-55
2022/12/26 01:20:23;;;;;;;31.42;5.63;;;;;;;8.19;100.00;97899.47;5030618;28;20022;-54
2022/12/26 01:22:48;;;;;;;30.02;5.60;;;;;;;8.20;100.00;97884.78;5028979;28;20053;-53
2022/12/26 01:25:13;;;;;;;27.02;5.43;;;;;;;8.19;100.00;97894.28;5027772;28;20142;-54
2022/12/26 01:27:39;;;;;;;34.47;6.10;;;;;;;8.26;100.00;97882.22;5028870;28;20029;-54
2022/12/26 01:30:05;;;;;;;28.55;5.93;;;;;;;8.23;100.00;97886.53;5028822;28;20033;-53
2022/12/26 01:32:30;;;;;;;29.63;5.35;;;;;;;8.32;100.00;97883.97;5028400;28;20075;-54
2022/12/26 01:34:55;;;;;;;27.88;5.10;;;;;;;8.40;100.00;97884.88;5027426;28;20025;-54
2022/12/26 01:37:24;;;;;;;24.25;5.05;;;;;;;8.39;100.00;97888.31;5026300;28;20056;-55
2022/12/26 01:39:50;;;;;;;42.05;6.28;;;;;;;8.41;100.00;97878.81;5026763;28;20029;-54
2022/12/26 01:42:19;;;;;;;25.02;5.20;;;;;;;8.48;100.00;97877.13;5028449;28;20033;-54
2022/12/26 01:44:59;;;;;;;32.95;5.45;;;;;;;8.40;100.00;97871.91;5028691;28;20025;-54
2022/12/26 01:47:35;;;;;;;23.98;4.90;;;;;;;8.37;100.00;97879.69;5028993;28;20038;-55
2022/12/26 01:50:01;;;;;;;37.20;5.50;;;;;;;8.34;100.00;97864.97;5027345;28;20527;-55
2022/12/26 01:52:36;;;;;;;24.13;5.00;;;;;;;8.23;100.00;97871.00;5028682;28;20050;-53
2022/12/26 01:55:05;;;;;;;33.38;5.80;;;;;;;8.14;100.00;97879.56;5027647;28;20025;-53
2022/12/26 01:57:39;;;;;;;27.30;4.80;;;;;;;8.15;100.00;97883.88;5029490;28;20044;-55
2022/12/26 02:00:06;;;;;;;38.00;5.90;;;;;;;8.13;100.00;97889.06;5026607;28;20037;-55
2022/12/26 02:05:32;;;;;;;27.50;5.60;;;;;;;8.14;100.00;97884.75;5027416;28;20119;-54
2022/12/26 02:05:32;;;;;;;28.25;5.57;;;;;;;8.10;100.00;97886.47;5027074;28;20087;-54
2022/12/26 02:08:00;;;;;;;28.85;5.50;;;;;;;8.13;100.00;97891.66;5027423;28;20032;-54
2022/12/26 02:10:27;;;;;;;30.00;5.43;;;;;;;8.08;100.00;97885.59;5027748;28;20033;-55
2022/12/26 02:12:53;;;;;;;27.90;5.47;;;;;;;8.23;100.00;97878.75;5025566;28;20555;-53
2022/12/26 02:15:19;;;;;;;25.88;5.03;;;;;;;8.28;100.00;97884.81;5028056;28;20679;-55
2022/12/26 02:17:44;;;;;;;20.45;4.68;;;;;;;8.35;100.00;97876.19;5027883;28;20021;-56
2022/12/26 02:20:17;;;;;;;31.67;5.70;;;;;;;8.34;100.00;97884.84;5025757;28;20053;-56
2022/12/26 02:22:54;;;;;;;29.70;5.38;;;;;;;8.44;100.00;97870.19;5030467;28;20771;-55
2022/12/26 02:25:57;;;;;;;35.47;5.80;;;;;;;8.49;100.00;97868.47;5027681;28;20030;-53
2022/12/26 02:28:34;;;;;;;37.72;5.78;;;;;;;8.56;100.00;97874.56;5028599;28;20041;-54
2022/12/26 02:31:17;;;;;;;25.23;5.25;;;;;;;8.53;100.00;97895.28;5026704;28;20136;-53
2022/12/26 02:33:54;;;;;;;28.48;5.32;;;;;;;8.52;100.00;97891.81;5027258;28;20090;-55
2022/12/26 02:36:45;;;;;;;27.98;5.15;;;;;;;8.39;100.00;97890.06;5026724;28;20044;-54
2022/12/26 02:39:32;;;;;;;28.52;5.28;;;;;;;8.46;100.00;97878.81;5028740;28;20522;-53
2022/12/26 02:42:24;;;;;;;25.27;5.10;;;;;;;8.46;100.00;97871.94;5026453;28;20041;-54
2022/12/26 02:47:54;;;;;;;27.50;5.03;;;;;;;8.56;100.00;97859.00;5029041;28;20952;-54
2022/12/26 03:13:38;;;;;;;27.52;5.40;;;;;;;8.68;100.00;97861.66;5038222;28;20029;-55
2022/12/26 03:19:06;;;;;;;37.35;6.40;;;;;;;8.91;100.00;97870.34;5030823;28;20035;-54
2022/12/26 03:21:37;;;;;;;29.17;5.47;;;;;;;9.03;100.00;97861.69;5028567;28;20052;-56
2022/12/26 03:24:03;;;;;;;30.15;5.30;;;;;;;9.01;100.00;97859.09;5029473;28;20037;-53
2022/12/26 03:26:40;;;;;;;25.73;5.32;;;;;;;8.91;100.00;97853.03;5032571;28;20468;-54
2022/12/26 03:31:52;;;;;;;28.52;5.07;;;;;;;8.99;100.00;97853.91;5030094;28;20052;-55
2022/12/26 03:34:17;;;;;;;22.98;4.85;;;;;;;9.09;100.00;97866.88;5030918;28;20036;-56
2022/12/26 03:37:01;;;;;;;25.15;5.40;;;;;;;9.10;100.00;97877.25;5029645;28;20041;-55
2022/12/26 04:20:53;;;;;;;33.22;5.90;;;;;;;9.31;100.00;97878.13;5030437;28;20113;-54
2022/12/26 04:46:19;;;;;;;26.83;4.72;;;;;;;9.54;100.00;97876.41;5029989;28;20059;-54
2022/12/26 04:51:30;;;;;;;22.60;4.25;;;;;;;9.61;100.00;97878.09;5028623;28;20166;-55
2022/12/26 04:53:56;;;;;;;33.72;5.60;;;;;;;9.66;100.00;97870.31;5028558;28;20457;-56
2022/12/26 04:56:21;;;;;;;25.73;4.65;;;;;;;9.61;100.00;97875.50;5028326;28;20119;-53
2022/12/26 04:58:46;;;;;;;21.63;4.28;;;;;;;9.72;100.00;97876.38;5028767;28;20194;-53
2022/12/26 05:09:33;;;;;;;27.10;4.80;;;;;;;9.79;100.00;97892.81;5027483;28;20087;-54
2022/12/26 05:12:03;;;;;;;23.38;4.80;;;;;;;9.79;100.00;97892.81;5028882;28;20486;-55
2022/12/26 05:14:30;;;;;;;29.33;4.80;;;;;;;9.83;100.00;97889.34;5027328;28;20718;-54
2022/12/26 05:30:48;;;;;;;25.48;4.43;;;;;;;10.16;100.00;97884.94;5028395;28;20052;-55
2022/12/26 05:35:57;;;;;;;25.10;4.80;;;;;;;10.31;100.00;97883.13;5026233;28;20098;-56
2022/12/26 05:38:23;;;;;;;32.28;5.63;;;;;;;10.39;100.00;97868.38;5028175;28;20033;-54
2022/12/26 05:40:48;;;;;;;22.63;4.80;;;;;;;10.56;100.00;97864.84;5029842;28;20037;-55
2022/12/26 05:43:14;;;;;;;24.35;4.85;;;;;;;10.54;100.00;97870.06;5029348;28;20029;-56
2022/12/26 05:45:39;;;;;;;17.75;3.97;;;;;;;10.60;100.00;97870.91;5027793;28;20041;-54
2022/12/26 05:48:05;;;;;;;23.02;4.18;;;;;;;10.59;100.00;97864.84;5027455;28;20064;-54
2022/12/26 05:50:30;;;;;;;30.02;4.80;;;;;;;10.79;100.00;97859.53;5029073;28;20070;-53
2022/12/26 05:52:56;;;;;;;22.23;4.20;;;;;;;11.01;100.00;97869.78;5028358;28;20047;-55
2022/12/26 05:55:23;;;;;;;24.75;4.70;;;;;;;10.90;100.00;97855.97;5028002;28;20029;-54
2022/12/26 05:57:49;;;;;;;19.05;3.33;;;;;;;10.83;100.00;97857.75;5028337;28;20238;-54
2022/12/26 06:00:14;;;;;;;21.75;4.07;;;;;;;11.09;100.00;97858.47;5029224;28;20496;-55
2022/12/26 06:02:40;;;;;;;23.50;4.57;;;;;;;11.21;100.00;97868.75;5027163;28;20025;-54
2022/12/26 06:05:06;;;;;;;22.33;3.90;;;;;;;11.30;100.00;97862.63;5029007;28;20072;-56
2022/12/26 06:07:31;;;;;;;26.23;4.32;;;;;;;11.20;100.00;97861.81;5026959;28;20039;-57
2022/12/26 06:09:56;;;;;;;34.25;5.00;;;;;;;11.25;100.00;97857.44;5027330;28;20519;-56
2022/12/26 06:12:22;;;;;;;22.10;4.00;;;;;;;11.28;100.00;97862.63;5027779;28;20137;-54
2022/12/26 06:14:47;;;;;;;29.27;4.72;;;;;;;11.44;100.00;97862.50;5026788;28;20109;-54
2022/12/26 06:17:13;;;;;;;22.80;4.10;;;;;;;11.45;100.00;97865.09;5026290;28;20099;-55
2022/12/26 06:19:39;;;;;;;22.23;3.90;;;;;;;11.61;100.00;97856.28;5030551;28;20108;-53
2022/12/26 06:22:04;;;;;;;19.90;3.95;;;;;;;11.55;100.00;97858.06;5028549;28;20069;-56
2022/12/26 06:24:29;;;;;;;22.73;3.88;;;;;;;11.62;100.00;97855.41;5027261;28;20083;-54
2022/12/26 06:26:55;;;;;;;30.40;4.57;;;;;;;11.67;100.00;97854.47;5028037;28;20128;-53
2022/12/26 06:29:20;;;;;;;20.63;3.40;;;;;;;11.83;100.00;97851.69;5028180;28;20036;-53
2022/12/26 06:31:45;;;;;;;23.35;4.18;;;;;;;11.81;100.00;97851.72;5026749;28;20111;-54
2022/12/26 06:34:11;;;;;;;28.02;4.53;;;;;;;11.88;100.00;97838.63;5029877;28;20091;-53
2022/12/26 06:36:37;;;;;;;17.50;3.50;;;;;;;11.97;100.00;97843.75;5027190;28;20046;-53
2022/12/26 06:39:02;;;;;;;28.80;4.25;;;;;;;11.92;100.00;97835.97;5025055;28;20029;-52
2022/12/26 06:41:28;;;;;;;21.50;4.10;;;;;;;12.03;100.00;97828.00;5026121;28;20043;-54
2022/12/26 06:43:54;;;;;;;27.90;4.35;;;;;;;11.92;100.00;97838.56;5026568;28;20037;-56
2022/12/26 06:46:22;;;;;;;20.67;3.90;;;;;;;12.17;100.00;97842.69;5028540;28;20045;-53
2022/12/26 06:48:48;;;;;;;19.27;3.53;;;;;;;12.05;100.00;97852.38;5027502;28;20029;-56
2022/12/26 06:51:20;;;;;;;25.40;4.45;;;;;;;12.07;100.00;97861.03;5026439;28;20115;-54
2022/12/26 06:53:46;;;;;;;21.63;3.95;;;;;;;11.96;100.00;97868.09;5029642;28;20143;-54
2022/12/26 06:56:14;;;;;;;29.42;4.68;;;;;;;11.77;100.00;97862.19;5028109;28;20033;-53
2022/12/26 06:58:40;;;;;;;21.55;4.07;;;;;;;11.90;100.00;97863.78;5026517;28;20045;-53
2022/12/26 07:01:11;;;;;;;22.80;4.10;;;;;;;11.98;100.00;97851.53;5026363;28;20064;-55
2022/12/26 07:03:37;;;;;;;26.77;4.65;;;;;;;11.98;100.00;97861.09;5027747;28;20029;-53
2022/12/26 07:06:05;;;;;;;18.70;3.60;;;;;;;12.06;100.00;97864.50;5026437;28;20045;-54
2022/12/26 07:08:31;;;;;;;21.65;4.18;;;;;;;12.03;100.00;97867.13;5028798;28;20686;-54
2022/12/26 07:10:56;;;;;;;21.60;4.30;;;;;;;12.00;100.00;97866.28;5025267;28;20078;-55
2022/12/26 07:13:22;;;;;;;30.10;5.03;;;;;;;12.13;100.00;97874.91;5026886;28;20033;-53
2022/12/26 07:15:47;;;;;;;18.08;3.45;;;;;;;12.33;100.00;97859.84;5027735;28;20617;-55
2022/12/26 07:18:12;;;;;;;19.02;3.70;;;;;;;12.09;100.00;97872.31;5028495;28;20107;-54
2022/12/26 07:20:38;;;;;;;19.48;3.90;;;;;;;12.13;100.00;97877.50;5026525;28;20037;-58
2022/12/26 07:23:03;;;;;;;24.73;4.35;;;;;;;11.98;100.00;97875.00;5027441;28;20128;-57
2022/12/26 07:25:28;;;;;;;23.33;4.30;;;;;;;12.04;100.00;97881.91;5027604;28;20487;-59
2022/12/26 07:27:54;;;;;;;25.27;4.60;;;;;;;11.98;100.00;97881.94;5028079;28;20025;-56
2022/12/26 07:30:19;;;;;;;22.80;4.32;;;;;;;11.91;100.00;97881.16;5027385;28;20071;-56
2022/12/26 07:32:45;;;;;;;19.02;3.88;;;;;;;11.94;100.00;97882.84;5026079;28;20154;-55
2022/12/26 07:35:10;;;;;;;18.10;3.78;;;;;;;12.14;100.00;97884.44;5028081;28;20056;-56
2022/12/26 07:37:35;;;;;;;28.88;4.95;;;;;;;12.05;100.00;97893.16;5031616;28;20021;-53
2022/12/26 07:40:01;;;;;;;22.05;4.15;;;;;;;11.95;100.00;97892.44;5029331;28;20021;-55
2022/12/26 07:42:27;;;;;;;27.60;4.68;;;;;;;12.00;100.00;97890.63;5039577;28;20090;-55
2022/12/26 07:44:52;;;;;;;21.73;4.13;;;;;;;12.03;100.00;97890.56;5032000;28;20724;-54
2022/12/26 07:47:17;;;;;;;23.88;4.35;;;;;;;11.92;100.00;97887.25;5032285;28;20037;-57
2022/12/26 07:49:43;;;;;;;33.17;5.35;;;;;;;11.92;100.00;97895.06;5030600;28;20391;-54
2022/12/26 07:52:08;;;;;;;19.63;4.03;;;;;;;11.93;100.00;97895.03;5031425;28;20053;-55
2022/12/26 07:54:33;;;;;;;20.67;4.15;;;;;;;12.01;100.00;97900.16;5030796;28;20785;-54
2022/12/26 07:56:59;;;;;;;23.73;4.18;;;;;;;12.07;100.00;97904.50;5029125;28;20044;-55
2022/12/26 07:59:24;;;;;;;21.55;4.32;;;;;;;11.94;100.00;97908.91;5031536;28;20025;-56
2022/12/26 08:01:49;;;;;;;26.77;4.70;;;;;;;12.04;100.00;97901.88;5029962;28;20037;-55
2022/12/26 08:04:15;;;;;;;21.02;4.38;;;;;;;12.01;100.00;97905.38;5030832;28;20497;-55
2022/12/26 08:06:40;;;;;;;17.90;3.83;;;;;;;12.19;100.00;97914.78;5028840;28;20033;-55
2022/12/26 08:09:06;;;;;;;26.88;4.78;;;;;;;12.13;100.00;97909.63;5034372;28;20730;-55
2022/12/26 08:11:34;;;;;;;24.58;4.60;;;;;;;11.98;100.00;97902.81;5029152;28;20041;-55
2022/12/26 08:14:00;;;;;;;33.90;5.32;;;;;;;11.96;100.00;97896.75;5028461;28;20501;-53
2022/12/26 08:16:26;;;;;;;35.90;5.85;;;;;;;12.16;100.00;97911.34;5029447;28;20048;-54
2022/12/26 08:18:51;;;;;;;22.33;4.68;;;;;;;12.34;100.00;97915.50;5030407;28;20033;-55
2022/12/26 08:21:17;;;;;;;24.35;4.50;;;;;;;12.35;100.00;97910.25;5027866;28;20041;-56
2022/12/26 08:23:42;;;;;;;20.95;5.15;;;;;;;12.28;100.00;97916.41;5030691;28;20039;-56
2022/12/26 08:26:12;;;;;;;28.98;5.38;;;;;;;12.16;100.00;97908.72;5029995;28;20103;-54
2022/12/26 08:28:37;;;;;;;18.95;4.20;;;;;;;12.23;100.00;97913.88;5030109;28;20076;-54
2022/12/26 08:31:07;;;;;;;25.67;4.95;;;;;;;12.23;100.00;97921.69;5029450;28;20040;-53
2022/12/26 08:33:33;;;;;;;21.73;4.35;;;;;;;12.15;100.00;97920.03;5029662;28;20032;-55
2022/12/26 08:36:07;;;;;;;19.60;4.35;;;;;;;12.07;100.00;97904.50;5030515;28;20068;-55
2022/12/26 08:38:32;;;;;;;23.95;4.45;;;;;;;12.18;100.00;97909.59;5031295;28;20057;-52
2022/12/26 08:40:58;;;;;;;26.27;4.53;;;;;;;12.23;100.00;97907.78;5029331;28;20126;-55
2022/12/26 08:43:24;;;;;;;25.85;4.50;;;;;;;12.37;100.00;97907.63;5029910;28;20029;-55
2022/12/26 08:46:03;;;;;;;20.52;4.15;;;;;;;12.26;100.00;97902.53;5029629;28;20079;-53
2022/12/26 08:48:29;;;;;;;32.70;5.60;;;;;;;12.22;100.00;97906.06;5029878;28;20086;-54
2022/12/26 08:50:59;;;;;;;26.65;5.05;;;;;;;12.34;100.00;97913.75;5026834;28;20033;-54
2022/12/26 08:53:25;;;;;;;26.65;4.90;;;;;;;12.45;100.00;97911.00;5029210;28;20112;-55
2022/12/26 08:55:51;;;;;;;27.15;4.90;;;;;;;12.49;100.00;97920.53;5028195;28;20140;-56
2022/12/26 08:58:16;;;;;;;23.35;4.65;;;;;;;12.37;100.00;97924.13;5028169;28;20549;-55
2022/12/26 09:00:42;;;;;;;22.33;4.78;;;;;;;12.07;100.00;97939.22;5027889;28;20041;-56
2022/12/26 09:03:07;;;;;;;23.40;6.28;;;;;;;12.00;100.00;97947.97;5028550;28;20866;-55
2022/12/26 09:05:33;;;;;;;26.15;5.57;;;;;;;11.89;100.00;97957.63;5029639;28;20047;-55
2022/12/26 09:07:59;;;;;;;25.75;6.45;;;;;;;11.70;100.00;97950.81;5031637;28;20021;-52
2022/12/26 09:10:24;;;;;;;29.83;6.18;;;;;;;11.63;100.00;97958.72;5028559;28;20041;-54
2022/12/26 09:12:50;;;;;;;28.10;5.30;;;;;;;11.69;100.00;97945.66;5029884;28;20113;-55
2022/12/26 09:15:15;;;;;;;25.55;5.30;;;;;;;11.81;100.00;97958.56;5027991;28;20395;-54
2022/12/26 09:17:41;;;;;;;28.48;5.47;;;;;;;11.81;100.00;97953.34;5026900;28;20079;-54
2022/12/26 09:20:06;;;;;;;22.27;4.75;;;;;;;11.80;100.00;97950.78;5027379;28;20033;-55
2022/12/26 09:22:50;;;;;;;20.48;5.13;;;;;;;11.90;100.00;97938.50;5028325;28;20820;-53
2022/12/26 09:25:21;;;;;;;27.73;5.68;;;;;;;12.24;100.00;97935.59;5028263;28;20024;-53
2022/12/26 09:27:47;;;;;;;22.53;5.13;;;;;;;12.61;100.00;97940.38;5028074;28;20115;-54
2022/12/26 09:30:13;;;;;;;22.00;4.80;;;;;;;12.85;100.00;97945.31;5027945;28;20071;-54
2022/12/26 09:32:39;;;;;;;24.67;5.05;;;;;;;12.74;100.00;97940.22;5028725;28;20025;-54
2022/12/26 09:35:05;;;;;;;32.05;5.85;;;;;;;12.92;100.00;97939.09;5025984;28;20120;-54
2022/12/26 09:37:30;;;;;;;26.35;5.20;;;;;;;12.76;100.00;97939.31;5028657;28;20035;-54
2022/12/26 09:39:56;;;;;;;38.25;6.28;;;;;;;12.74;100.00;97935.00;5029336;28;20025;-56
2022/12/26 09:42:39;;;;;;;21.15;5.00;;;;;;;12.88;100.00;97943.50;5027667;28;20044;-55
2022/12/26 09:45:14;;;;;;;29.02;5.55;;;;;;;12.74;100.00;97948.06;5036037;28;20029;-55
2022/12/26 09:47:45;;;;;;;19.02;4.97;;;;;;;12.73;100.00;97936.75;5028136;28;20029;-55
2022/12/26 09:50:18;;;;;;;33.42;6.22;;;;;;;12.81;100.00;97934.03;5027386;28;20515;-54
2022/12/26 09:52:50;;;;;;;23.90;5.13;;;;;;;12.82;100.00;97930.56;5028986;28;20017;-55
2022/12/26 09:55:40;;;;;;;26.38;5.80;;;;;;;12.91;100.00;97926.09;5028040;28;20044;-53
2022/12/26 09:58:23;;;;;;;28.75;5.53;;;;;;;12.82;100.00;97933.16;5027630;28;20021;-53
2022/12/26 10:01:12;;;;;;;21.67;4.68;;;;;;;12.80;100.00;97934.91;5024847;28;20041;-53
2022/12/26 10:03:43;;;;;;;21.30;5.20;;;;;;;12.96;100.00;97934.72;5026524;28;20024;-53
2022/12/26 10:06:12;;;;;;;20.88;5.20;;;;;;;12.50;100.00;97937.91;5027790;28;20459;-55
2022/12/26 10:09:05;;;;;;;22.92;5.00;;;;;;;12.61;100.00;97934.28;5026647;28;20033;-53
2022/12/26 10:12:00;;;;;;;24.80;4.85;;;;;;;12.58;100.00;97956.06;5028770;28;20045;-55
2022/12/26 10:14:35;;;;;;;29.52;5.50;;;;;;;12.63;100.00;97953.41;5028270;28;20032;-55
2022/12/26 10:17:19;;;;;;;20.23;4.35;;;;;;;12.49;100.00;97957.06;5027728;28;20055;-53
2022/12/26 10:20:09;;;;;;;26.58;5.70;;;;;;;12.34;100.00;97955.47;5028683;28;20071;-53
2022/12/26 10:23:03;;;;;;;30.35;6.13;;;;;;;12.36;100.00;97978.94;5027327;28;20047;-55
2022/12/26 10:25:52;;;;;;;36.45;7.15;;;;;;;12.35;100.00;97975.47;5028787;28;20053;-56
2022/12/26 10:28:42;;;;;;;23.42;6.25;;;;;;;12.15;100.00;97987.81;5027199;28;20064;-56
2022/12/26 10:31:25;;;;;;;24.38;6.07;;;;;;;12.03;100.00;98001.81;5025691;28;20926;-55
2022/12/26 10:34:01;;;;;;;20.48;6.35;;;;;;;12.03;100.00;97999.22;5026465;28;20037;-52
2022/12/26 10:36:41;;;;;;;29.67;6.72;;;;;;;11.83;100.00;97987.22;5028070;28;20040;-53
2022/12/26 10:39:16;;;;;;;25.63;6.00;;;;;;;11.81;100.00;97989.81;5026593;28;20545;-54
2022/12/26 10:41:45;;;;;;;25.13;6.60;;;;;;;11.68;100.00;97998.63;5027442;28;20391;-56
2022/12/26 10:44:12;;;;;;;24.88;5.80;;;;;;;11.55;100.00;98005.66;5027554;28;20033;-55
2022/12/26 10:47:02;;;;;;;26.67;5.70;;;;;;;11.68;100.00;98009.03;5027202;28;20033;-54
2022/12/26 10:49:27;;;;;;;31.65;7.25;;;;;;;11.44;100.00;98013.56;5026044;28;20021;-56
2022/12/26 10:51:55;;;;;;;31.77;6.72;;;;;;;11.56;100.00;98021.28;5027736;28;20049;-56
2022/12/26 10:54:22;;;;;;;24.88;6.13;;;;;;;11.67;100.00;98016.00;5025040;28;20053;-54
2022/12/26 10:56:50;;;;;;;24.77;5.50;;;;;;;11.57;100.00;98025.63;5027498;28;20033;-54
2022/12/26 10:59:20;;;;;;;25.42;5.82;;;;;;;11.43;100.00;98022.25;5029405;28;20025;-53
2022/12/26 11:01:46;;;;;;;19.02;4.45;;;;;;;11.45;100.00;98023.09;5027917;28;20479;-55
2022/12/26 11:04:14;;;;;;;22.67;5.97;;;;;;;11.41;100.00;98029.19;5029756;28;20039;-55
2022/12/26 11:06:41;;;;;;;21.92;6.30;;;;;;;11.42;100.00;98033.53;5030016;28;20822;-54
2022/12/26 11:09:42;;;;;;;30.83;6.10;;;;;;;11.48;100.00;98037.84;5027728;28;20133;-56
2022/12/26 11:12:24;;;;;;;24.85;5.95;;;;;;;11.33;100.00;98024.88;5027104;28;20037;-53
2022/12/26 11:14:58;;;;;;;25.40;4.88;;;;;;;11.20;100.00;98021.50;5030860;28;20059;-55
2022/12/26 11:17:27;;;;;;;23.48;5.68;;;;;;;11.46;100.00;98006.59;5030470;28;20048;-55
2022/12/26 11:20:15;;;;;;;34.22;6.47;;;;;;;12.04;100.00;98014.84;5030089;28;20032;-53
2022/12/26 11:22:42;;;;;;;25.33;6.80;;;;;;;11.56;100.00;98025.63;5031609;28;20045;-53
2022/12/26 11:25:18;;;;;;;29.75;6.20;;;;;;;11.61;100.00;98023.84;5031158;28;20160;-54
2022/12/26 11:27:47;;;;;;;29.65;6.55;;;;;;;11.81;100.00;98015.88;5031274;28;20029;-55
2022/12/26 11:30:12;;;;;;;29.20;6.70;;;;;;;11.67;100.00;98004.72;5029247;28;20099;-54
2022/12/26 11:32:39;;;;;;;30.77;7.18;;;;;;;11.98;100.00;98012.28;5031822;28;20660;-53
2022/12/26 11:35:05;;;;;;;29.23;6.35;;;;;;;12.00;100.00;98005.31;5030058;28;20106;-55
2022/12/26 11:37:40;;;;;;;32.97;6.60;;;;;;;12.09;100.00;97994.84;5030683;28;20017;-53
2022/12/26 11:40:14;;;;;;;30.98;7.60;;;;;;;11.88;100.00;98000.22;5029862;28;20040;-56
2022/12/26 11:42:40;;;;;;;28.90;6.40;;;;;;;11.91;100.00;97993.22;5033210;28;20466;-53
2022/12/26 11:45:10;;;;;;;32.25;7.05;;;;;;;12.14;100.00;97983.50;5029914;28;20025;-54
2022/12/26 11:47:36;;;;;;;35.33;7.20;;;;;;;12.07;100.00;97990.53;5029784;28;20446;-55
2022/12/26 11:50:08;;;;;;;34.65;6.85;;;;;;;12.10;100.00;98006.16;5030851;28;20025;-54
2022/12/26 11:52:38;;;;;;;39.22;7.40;;;;;;;12.01;100.00;97996.63;5028772;28;20056;-56
2022/12/26 11:55:22;;;;;;;30.33;7.10;;;;;;;12.16;100.00;97989.56;5030135;28;20033;-55
2022/12/26 11:57:59;;;;;;;30.80;6.22;;;;;;;12.06;100.00;97994.84;5031653;28;20021;-54
2022/12/26 12:00:25;;;;;;;28.00;6.45;;;;;;;12.00;100.00;97999.22;5029735;28;20024;-54
2022/12/26 12:02:50;;;;;;;32.63;6.35;;;;;;;12.27;100.00;97989.44;5029804;28;20053;-57
2022/12/26 12:06:06;;;;;;;33.67;6.72;;;;;;;12.10;100.00;97993.94;5029569;28;20075;-56
2022/12/26 12:08:55;;;;;;;28.92;5.82;;;;;;;12.37;100.00;97998.91;5006295;28;20045;-56
2022/12/26 12:11:29;;;;;;;32.40;6.60;;;;;;;12.34;100.00;97994.59;5005570;28;20045;-53
2022/12/26 12:13:56;;;;;;;28.63;6.30;;;;;;;12.43;100.00;97992.78;5024346;28;20794;-54
2022/12/26 12:16:43;;;;;;;41.10;7.15;;;;;;;12.14;100.00;97988.72;5027547;28;20048;-55
2022/12/26 12:19:35;;;;;;;27.48;5.57;;;;;;;12.20;100.00;97986.91;5031902;28;20017;-55
2022/12/26 12:22:18;;;;;;;29.67;6.57;;;;;;;12.62;100.00;97999.50;5023542;28;20550;-55
2022/12/26 12:24:52;;;;;;;31.73;5.68;;;;;;;12.13;100.00;97993.06;5029211;28;20037;-53
2022/12/26 12:27:29;;;;;;;27.88;5.25;;;;;;;12.14;100.00;97980.91;5030196;28;20051;-53
2022/12/26 12:30:43;;;;;;;42.30;7.40;;;;;;;12.29;100.00;97975.50;5030398;28;20075;-54
2022/12/26 12:33:27;;;;;;;30.48;6.18;;;;;;;12.04;100.00;97967.91;5026935;28;20060;-54
2022/12/26 12:36:07;;;;;;;31.88;5.72;;;;;;;12.27;100.00;97965.97;5028950;28;20048;-59
2022/12/26 12:38:40;;;;;;;21.92;4.40;;;;;;;12.66;100.00;97979.44;5028261;28;20115;-56
2022/12/26 12:41:26;;;;;;;30.95;6.45;;;;;;;12.21;100.00;97972.13;5029268;28;20068;-55
2022/12/26 12:43:59;;;;;;;30.95;6.40;;;;;;;12.44;100.00;97973.63;5024048;28;20069;-56
2022/12/26 12:46:50;;;;;;;25.58;4.75;;;;;;;12.32;100.00;97961.59;5027899;28;20037;-54
2022/12/26 12:49:25;;;;;;;34.15;6.30;;;;;;;12.29;100.00;97995.53;5027066;28;20021;-53
2022/12/26 12:52:18;;;;;;;30.08;5.78;;;;;;;12.40;100.00;98003.22;5036809;28;20509;-54
2022/12/26 12:55:10;;;;;;;27.35;4.97;;;;;;;12.67;100.00;98001.19;5026713;28;20025;-53
2022/12/26 12:58:01;;;;;;;30.85;6.13;;;;;;;12.58;100.00;98003.03;5030817;28;20041;-56
2022/12/26 13:00:38;;;;;;;22.88;5.10;;;;;;;12.40;100.00;97996.25;5027832;28;20032;-55
2022/12/26 13:03:39;;;;;;;27.08;4.95;;;;;;;12.55;100.00;97992.63;5028687;28;20052;-54
2022/12/26 13:06:13;;;;;;;19.73;4.53;;;;;;;12.42;100.00;97999.72;5028823;28;20710;-54
2022/12/26 13:08:52;;;;;;;25.52;5.15;;;;;;;12.97;100.00;97993.88;5028703;28;20454;-53
2022/12/26 13:11:35;;;;;;;34.75;6.25;;;;;;;12.68;100.00;97993.34;5027375;28;20042;-54
2022/12/26 13:14:09;;;;;;;31.65;5.60;;;;;;;12.44;100.00;97984.91;5027674;28;20105;-54
2022/12/26 13:16:42;;;;;;;40.75;6.20;;;;;;;12.61;100.00;97976.91;5027429;28;20745;-54
2022/12/26 13:19:21;;;;;;;20.70;4.55;;;;;;;13.15;100.00;97980.56;5028400;28;20028;-54
2022/12/26 13:21:48;;;;;;;21.80;4.32;;;;;;;13.17;100.00;97977.09;5028925;28;20152;-55
2022/12/26 13:24:36;;;;;;;23.33;4.45;;;;;;;13.38;100.00;97968.06;5027782;28;20105;-53
2022/12/26 13:27:23;;;;;;;25.98;4.07;;;;;;;12.69;100.00;97961.16;5028328;28;20083;-58
2022/12/26 13:29:48;;;;;;;32.22;5.43;;;;;;;13.25;100.00;97968.22;5029999;28;20025;-54
2022/12/26 13:32:27;;;;;;;22.15;4.35;;;;;;;12.81;100.00;97969.72;5027570;28;20048;-55
2022/12/26 13:34:57;;;;;;;24.50;4.25;;;;;;;12.66;100.00;97966.41;5028472;28;20025;-54
2022/12/26 13:37:56;;;;;;;23.25;4.03;;;;;;;12.79;100.00;97969.72;5028524;28;20060;-54
2022/12/26 13:40:28;;;;;;;26.52;5.00;;;;;;;12.60;100.00;97979.53;5026961;28;20095;-54